createdAt,value
2022-08-20T00:01:56.453Z,40.00
2022-08-20T00:04:25.628Z,43.40
2022-08-20T00:06:54.849Z,39.40
2022-08-20T00:09:23.915Z,42.00
2022-08-20T00:11:54.172Z,38.60
2022-08-20T00:14:23.341Z,35.20
2022-08-20T00:16:52.433Z,41.00
2022-08-20T00:19:22.861Z,43.80
2022-08-20T00:21:55.729Z,39.20
2022-08-20T00:24:24.550Z,42.40
2022-08-20T00:26:53.933Z,41.20
2022-08-20T00:29:23.135Z,41.80
2022-08-20T00:31:53.052Z,40.20
2022-08-20T00:34:22.345Z,45.40
2022-08-20T00:36:51.547Z,42.20
2022-08-20T00:39:20.742Z,46.00
2022-08-20T00:41:52.916Z,41.40
2022-08-20T00:44:23.478Z,43.00
2022-08-20T00:46:54.279Z,58.50
2022-08-20T00:49:29.412Z,63.25
2022-08-20T00:52:10.716Z,59.20
2022-08-20T00:54:55.179Z,52.20
2022-08-20T00:57:59.125Z,71.00
2022-08-20T01:00:09.557Z,74.75
2022-08-20T01:02:38.856Z,66.00
2022-08-20T01:05:09.693Z,84.25
2022-08-20T01:07:40.057Z,98.25
2022-08-20T01:10:12.349Z,92.75
2022-08-20T01:12:46.464Z,76.75
2022-08-20T01:15:18.811Z,61.50
2022-08-20T01:17:51.850Z,58.75
2022-08-20T01:20:28.570Z,49.40
2022-08-20T01:23:21.350Z,53.40
2022-08-20T01:25:56.546Z,44.60
2022-08-20T01:28:28.656Z,33.40
2022-08-20T01:30:58.281Z,55.40
2022-08-20T01:33:28.199Z,58.00
2022-08-20T01:35:57.712Z,64.00
2022-08-20T01:38:27.578Z,69.25
2022-08-20T01:41:05.557Z,69.75
2022-08-20T01:43:37.155Z,68.50
2022-08-20T01:46:07.072Z,71.50
2022-08-20T01:48:36.159Z,70.75
2022-08-20T01:51:17.030Z,68.75
2022-08-20T01:53:52.210Z,57.60
2022-08-20T01:56:25.975Z,53.40
2022-08-20T01:58:59.028Z,45.20
2022-08-20T02:01:34.596Z,41.20
2022-08-20T02:04:07.602Z,42.40
2022-08-20T02:06:41.586Z,40.80
2022-08-20T02:09:16.184Z,38.60
2022-08-20T02:11:47.154Z,44.60
2022-08-20T02:14:17.238Z,32.80
2022-08-20T02:16:54.729Z,36.80
2022-08-20T02:19:24.491Z,32.40
2022-08-20T02:21:56.763Z,32.60
2022-08-20T02:24:25.871Z,33.40
2022-08-20T02:26:55.844Z,31.80
2022-08-20T02:29:26.413Z,28.60
2022-08-20T02:32:24.574Z,31.80
2022-08-20T02:34:26.442Z,29.20
2022-08-20T02:36:55.669Z,32.60
2022-08-20T02:39:26.168Z,29.40
2022-08-20T02:41:55.763Z,32.80
2022-08-20T02:44:24.968Z,28.80
2022-08-20T02:46:54.304Z,27.60
2022-08-20T02:49:23.877Z,32.20
2022-08-20T02:51:53.082Z,32.20
2022-08-20T02:54:22.279Z,29.60
2022-08-20T02:56:52.550Z,30.80
2022-08-20T02:59:21.702Z,32.80
2022-08-20T03:01:59.238Z,31.00
2022-08-20T03:04:23.269Z,29.00
2022-08-20T03:06:54.307Z,33.00
2022-08-20T03:09:23.462Z,34.00
2022-08-20T03:11:53.214Z,28.20
2022-08-20T03:14:22.516Z,31.00
2022-08-20T03:16:52.331Z,27.60
2022-08-20T03:19:21.755Z,28.60
2022-08-20T03:21:51.031Z,30.40
2022-08-20T03:24:20.451Z,26.60
2022-08-20T03:26:49.635Z,31.20
2022-08-20T03:29:18.778Z,35.60
2022-08-20T03:31:48.130Z,28.20
2022-08-20T03:34:17.331Z,27.00
2022-08-20T03:36:46.520Z,27.80
2022-08-20T03:39:15.844Z,32.60
2022-08-20T03:41:45.126Z,30.00
2022-08-20T03:44:14.227Z,29.60
2022-08-20T03:46:43.645Z,32.20
2022-08-20T03:49:12.830Z,30.20
2022-08-20T03:51:57.584Z,24.40
2022-08-20T03:54:13.068Z,29.20
2022-08-20T03:56:42.258Z,29.40
2022-08-20T03:59:11.431Z,24.80
2022-08-20T04:01:45.592Z,28.00
2022-08-20T04:04:12.173Z,20.80
2022-08-20T04:06:42.445Z,30.20
2022-08-20T04:09:12.864Z,15.60
2022-08-20T04:11:42.932Z,27.00
2022-08-20T04:14:17.420Z,33.00
2022-08-20T04:16:45.918Z,30.00
2022-08-20T04:19:16.721Z,25.00
2022-08-20T04:21:47.657Z,30.80
2022-08-20T04:24:22.520Z,29.80
2022-08-20T04:26:48.309Z,24.80
2022-08-20T04:29:17.498Z,25.20
2022-08-20T04:31:46.695Z,26.20
2022-08-20T04:34:17.436Z,21.40
2022-08-20T04:36:48.890Z,23.20
2022-08-20T04:39:18.490Z,23.00
2022-08-20T04:41:47.609Z,24.80
2022-08-20T04:44:16.893Z,25.80
2022-08-20T04:46:45.985Z,23.00
2022-08-20T04:49:15.335Z,24.60
2022-08-20T04:51:44.487Z,22.60
2022-08-20T04:54:15.007Z,21.40
2022-08-20T04:56:44.325Z,23.20
2022-08-20T04:59:14.050Z,21.60
2022-08-20T05:01:43.220Z,26.00
2022-08-20T05:04:12.410Z,22.00
2022-08-20T05:06:41.644Z,18.80
2022-08-20T05:09:10.820Z,20.80
2022-08-20T05:11:40.220Z,23.40
2022-08-20T05:14:10.819Z,25.40
2022-08-20T05:16:41.499Z,28.80
2022-08-20T05:19:13.654Z,21.60
2022-08-20T05:21:43.258Z,26.60
2022-08-20T05:24:13.167Z,18.00
2022-08-20T05:26:42.491Z,29.20
2022-08-20T05:29:13.512Z,27.20
2022-08-20T05:31:43.224Z,27.20
2022-08-20T05:34:13.749Z,26.60
2022-08-20T05:36:45.914Z,20.80
2022-08-20T05:39:17.067Z,26.60
2022-08-20T05:41:46.800Z,23.00
2022-08-20T05:44:16.387Z,28.60
2022-08-20T05:46:47.424Z,23.00
2022-08-20T05:49:20.333Z,22.00
2022-08-20T05:51:51.522Z,23.75
2022-08-20T05:54:21.363Z,22.40
